createdAt,value
2022-09-28T00:01:24.134Z,9.40
2022-09-28T00:03:54.522Z,9.40
2022-09-28T00:06:26.720Z,10.10
2022-09-28T00:08:53.602Z,9.00
2022-09-28T00:11:22.916Z,9.40
2022-09-28T00:13:53.327Z,9.50
2022-09-28T00:16:27.561Z,9.10
2022-09-28T00:18:55.314Z,9.40
2022-09-28T00:21:29.593Z,8.50
2022-09-28T00:24:15.707Z,9.40
2022-09-28T00:26:55.682Z,9.70
2022-09-28T00:29:42.104Z,9.60
2022-09-28T00:32:13.993Z,9.40
2022-09-28T00:34:45.989Z,9.30
2022-09-28T00:37:15.097Z,9.20
2022-09-28T00:39:42.102Z,9.40
2022-09-28T00:42:19.409Z,9.00
2022-09-28T00:44:59.695Z,8.70
2022-09-28T00:47:52.006Z,9.20
2022-09-28T00:50:31.027Z,9.40
2022-09-28T00:53:19.521Z,9.80
2022-09-28T00:55:51.506Z,9.40
2022-09-28T00:58:27.487Z,9.60
2022-09-28T01:00:59.626Z,9.40
2022-09-28T01:03:28.780Z,9.30
2022-09-28T01:05:59.647Z,9.60
2022-09-28T01:08:29.751Z,9.10
2022-09-28T01:10:59.361Z,9.50
2022-09-28T01:13:28.465Z,9.90
2022-09-28T01:17:00.321Z,9.60
2022-09-28T01:19:58.824Z,9.50
2022-09-28T01:22:59.032Z,9.20
2022-09-28T01:25:55.877Z,9.60
2022-09-28T01:28:29.235Z,9.20
2022-09-28T01:31:15.318Z,9.40
2022-09-28T01:33:48.501Z,9.80
2022-09-28T01:36:25.932Z,9.50
2022-09-28T01:39:00.825Z,9.40
2022-09-28T01:41:30.439Z,9.40
2022-09-28T01:44:02.889Z,9.50
2022-09-28T01:46:41.362Z,9.60
2022-09-28T01:49:34.710Z,8.90
2022-09-28T01:52:24.504Z,9.40
2022-09-28T01:55:13.531Z,9.30
2022-09-28T01:58:02.074Z,9.40
2022-09-28T02:00:29.941Z,9.30
2022-09-28T02:03:16.747Z,10.10
2022-09-28T02:05:57.856Z,9.30
2022-09-28T02:08:43.453Z,9.10
2022-09-28T02:11:17.393Z,9.70
2022-09-28T02:14:02.050Z,9.00
2022-09-28T02:16:37.820Z,9.90
2022-09-28T02:19:08.553Z,9.30
2022-09-28T02:22:08.700Z,9.30
2022-09-28T02:24:51.547Z,9.30
2022-09-28T02:27:52.497Z,9.30
2022-09-28T02:30:19.977Z,9.50
2022-09-28T02:32:50.830Z,9.40
2022-09-28T02:35:19.038Z,9.30
2022-09-28T02:37:46.518Z,9.40
2022-09-28T02:40:25.802Z,9.40
2022-09-28T02:43:25.394Z,9.20
2022-09-28T02:46:05.906Z,9.50
2022-09-28T02:49:21.701Z,9.30
2022-09-28T02:52:30.509Z,9.10
2022-09-28T02:55:19.100Z,10.00
2022-09-28T02:58:09.153Z,9.40
2022-09-28T03:00:57.590Z,9.50
2022-09-28T03:03:37.670Z,9.30
2022-09-28T03:06:37.755Z,9.40
2022-09-28T03:09:25.793Z,9.30
2022-09-28T03:12:11.280Z,9.30
2022-09-28T03:14:38.250Z,9.10
2022-09-28T03:19:34.579Z,9.30
2022-09-28T03:22:01.838Z,9.30
2022-09-28T03:29:23.530Z,9.70
2022-09-28T03:31:57.435Z,10.40
2022-09-28T03:34:24.383Z,9.30
2022-09-28T03:39:19.369Z,9.20
2022-09-28T03:41:46.393Z,9.40
2022-09-28T03:46:41.235Z,9.50
2022-09-28T03:49:10.266Z,9.40
2022-09-28T03:54:05.112Z,9.50
2022-09-28T03:56:32.266Z,9.30
2022-09-28T03:58:59.247Z,9.30
2022-09-28T04:01:26.882Z,9.20
2022-09-28T04:03:57.536Z,8.80
2022-09-28T04:06:25.768Z,9.40
2022-09-28T04:08:52.945Z,9.50
2022-09-28T04:11:19.961Z,9.80
2022-09-28T04:13:50.227Z,9.50
2022-09-28T04:16:18.607Z,9.50
2022-09-28T04:18:54.880Z,9.30
2022-09-28T04:21:51.088Z,9.00
2022-09-28T04:24:20.201Z,9.90
2022-09-28T04:26:47.503Z,9.30
2022-09-28T04:29:17.700Z,9.20
2022-09-28T04:31:56.254Z,9.20
2022-09-28T04:34:37.103Z,8.40
2022-09-28T04:37:04.280Z,9.20
2022-09-28T04:39:31.256Z,8.90
2022-09-28T04:44:27.345Z,9.20
2022-09-28T04:47:02.981Z,11.40
2022-09-28T04:52:08.379Z,9.70
2022-09-28T04:54:36.020Z,10.20
2022-09-28T04:57:03.768Z,8.90
2022-09-28T04:59:30.829Z,9.20
2022-09-28T05:01:57.928Z,9.20
2022-09-28T05:07:48.650Z,10.00
2022-09-28T05:10:15.672Z,9.20
2022-09-28T05:12:42.740Z,8.90
2022-09-28T05:15:11.670Z,9.00
2022-09-28T05:20:22.106Z,9.20
2022-09-28T05:22:49.281Z,9.10
2022-09-28T05:25:17.499Z,9.00
2022-09-28T05:28:03.475Z,8.80
2022-09-28T05:31:05.682Z,8.90
2022-09-28T05:33:53.535Z,8.90
2022-09-28T05:41:16.095Z,9.00
2022-09-28T05:46:12.741Z,8.60
2022-09-28T05:48:41.673Z,8.70
2022-09-28T05:51:10.131Z,8.90
2022-09-28T05:58:34.018Z,8.80
2022-09-28T06:01:01.098Z,9.10
2022-09-28T06:06:00.590Z,9.20
2022-09-28T06:08:27.782Z,9.60
2022-09-28T06:11:03.761Z,9.00
2022-09-28T06:13:32.138Z,8.70
2022-09-28T06:15:59.231Z,9.00
2022-09-28T06:18:27.525Z,9.50
2022-09-28T06:21:21.715Z,9.10
2022-09-28T06:28:45.988Z,9.10
2022-09-28T06:31:13.424Z,9.00
2022-09-28T06:33:45.150Z,7.90
2022-09-28T06:36:13.686Z,9.00
2022-09-28T06:38:40.687Z,9.20
2022-09-28T06:43:36.686Z,9.20
2022-09-28T06:46:14.149Z,9.20
2022-09-28T06:48:50.659Z,9.50
2022-09-28T06:51:43.624Z,9.10
2022-09-28T06:54:25.838Z,9.30
2022-09-28T06:57:21.631Z,9.20
2022-09-28T06:59:48.687Z,9.00
2022-09-28T07:05:12.385Z,8.80
2022-09-28T07:07:59.685Z,9.20
2022-09-28T07:11:06.694Z,9.40
2022-09-28T07:13:51.466Z,9.40
2022-09-28T07:16:26.417Z,9.30
2022-09-28T07:18:55.027Z,10.10
2022-09-28T07:21:28.727Z,9.20
2022-09-28T07:24:00.104Z,10.00
2022-09-28T07:29:34.984Z,9.50
2022-09-28T07:35:14.487Z,9.60
2022-09-28T07:37:58.745Z,9.60
2022-09-28T07:40:48.367Z,10.00
2022-09-28T07:43:20.529Z,9.50
2022-09-28T07:45:52.583Z,9.60
2022-09-28T07:48:21.199Z,9.60
2022-09-28T07:51:00.367Z,9.70
2022-09-28T07:53:33.294Z,9.70
2022-09-28T07:56:19.563Z,9.70
2022-09-28T07:59:07.832Z,9.50
2022-09-28T08:04:10.688Z,9.50
2022-09-28T08:06:40.500Z,9.60
2022-09-28T08:09:08.902Z,9.60
2022-09-28T08:11:57.939Z,9.60
2022-09-28T08:14:48.271Z,9.70
2022-09-28T08:17:47.879Z,9.90
2022-09-28T08:20:34.380Z,9.60
2022-09-28T08:23:08.889Z,9.80
2022-09-28T08:25:38.261Z,9.80
2022-09-28T08:28:07.398Z,9.70
2022-09-28T08:30:40.249Z,10.10
2022-09-28T08:33:40.096Z,9.70
2022-09-28T08:39:02.312Z,9.60
2022-09-28T08:41:43.857Z,9.70
2022-09-28T08:48:15.486Z,9.70
2022-09-28T08:51:19.247Z,9.70
2022-09-28T08:54:23.263Z,10.50
2022-09-28T08:57:01.961Z,10.60
2022-09-28T08:59:54.923Z,10.00
2022-09-28T09:02:39.567Z,10.50
2022-09-28T09:05:58.342Z,10.60
2022-09-28T09:09:01.030Z,9.90
2022-09-28T09:11:56.173Z,10.10
2022-09-28T09:15:02.962Z,10.90
2022-09-28T09:17:59.522Z,9.90
2022-09-28T09:20:59.047Z,10.20
2022-09-28T09:23:40.203Z,10.20
2022-09-28T09:26:25.832Z,9.90
2022-09-28T09:29:17.227Z,10.80
2022-09-28T09:32:05.787Z,11.40
2022-09-28T09:34:45.425Z,10.30
2022-09-28T09:38:10.446Z,10.00
2022-09-28T09:41:04.652Z,9.60
2022-09-28T09:44:44.920Z,10.30
2022-09-28T09:47:59.113Z,9.90
2022-09-28T09:50:50.630Z,9.90
2022-09-28T09:53:50.058Z,10.20
2022-09-28T09:56:43.915Z,10.30
2022-09-28T09:59:26.694Z,10.30
2022-09-28T10:02:28.264Z,10.30
2022-09-28T10:05:20.984Z,10.40
2022-09-28T10:08:01.901Z,10.40
2022-09-28T10:10:40.531Z,10.00
2022-09-28T10:13:10.463Z,10.60
2022-09-28T10:15:40.608Z,10.40
2022-09-28T10:18:16.778Z,11.50
2022-09-28T10:21:02.924Z,10.60
2022-09-28T10:23:54.394Z,11.20
2022-09-28T10:26:32.812Z,11.20
2022-09-28T10:31:43.699Z,10.70
2022-09-28T10:34:28.583Z,10.50
2022-09-28T10:37:03.422Z,10.80
2022-09-28T10:39:53.351Z,10.60
2022-09-28T10:42:32.430Z,9.90
2022-09-28T10:45:12.864Z,10.70
2022-09-28T10:47:44.619Z,10.60
2022-09-28T10:50:34.962Z,10.20
2022-09-28T10:53:20.619Z,10.60
2022-09-28T10:56:08.881Z,10.60
2022-09-28T10:58:42.126Z,10.30
2022-09-28T11:01:22.115Z,11.90
2022-09-28T11:03:57.092Z,10.80
2022-09-28T11:06:37.679Z,10.90
2022-09-28T11:09:20.647Z,10.80
2022-09-28T11:11:47.812Z,10.80
2022-09-28T11:14:42.977Z,11.00
2022-09-28T11:17:27.242Z,11.00
2022-09-28T11:20:26.126Z,11.10
2022-09-28T11:23:07.913Z,11.10
2022-09-28T11:28:05.615Z,11.30
2022-09-28T11:30:52.857Z,11.00
2022-09-28T11:33:43.046Z,11.10
2022-09-28T11:36:48.279Z,11.50
2022-09-28T11:39:42.195Z,11.70
2022-09-28T11:42:21.764Z,11.50
2022-09-28T11:44:49.515Z,11.90
2022-09-28T11:47:47.339Z,12.00
2022-09-28T11:50:54.829Z,12.00
2022-09-28T11:53:52.471Z,11.90
2022-09-28T11:56:41.939Z,11.90
2022-09-28T11:59:18.369Z,12.70
2022-09-28T12:02:03.636Z,11.80
2022-09-28T12:05:22.212Z,13.00
2022-09-28T12:07:56.848Z,12.40
2022-09-28T12:11:01.850Z,12.80
2022-09-28T12:13:52.898Z,12.70
2022-09-28T12:17:03.706Z,12.50
2022-09-28T12:19:29.897Z,12.40
2022-09-28T12:22:10.130Z,12.20
2022-09-28T12:24:47.883Z,12.00
2022-09-28T12:27:41.082Z,12.00
2022-09-28T12:30:20.648Z,11.90
2022-09-28T12:33:15.369Z,11.80
2022-09-28T12:36:09.718Z,12.00
2022-09-28T12:39:17.592Z,12.40
2022-09-28T12:42:06.311Z,12.10
2022-09-28T12:45:17.685Z,13.10
2022-09-28T12:48:40.968Z,11.70
2022-09-28T12:51:41.479Z,12.40
2022-09-28T12:54:44.337Z,11.70
2022-09-28T12:57:39.045Z,12.10
2022-09-28T13:00:17.521Z,12.10
2022-09-28T13:03:38.416Z,12.30
2022-09-28T13:06:22.733Z,12.20
2022-09-28T13:09:16.812Z,12.10
2022-09-28T13:12:04.764Z,12.20
2022-09-28T13:15:03.737Z,12.30
2022-09-28T13:17:57.951Z,12.50
2022-09-28T13:21:03.099Z,13.70
2022-09-28T13:23:46.568Z,12.50
2022-09-28T13:26:27.117Z,12.80
2022-09-28T13:29:02.154Z,12.70
2022-09-28T13:31:34.947Z,12.70
2022-09-28T13:34:04.502Z,12.80
2022-09-28T13:36:31.351Z,13.90
2022-09-28T13:39:00.778Z,12.60
2022-09-28T13:41:38.704Z,12.80
2022-09-28T13:44:22.212Z,12.50
2022-09-28T13:47:26.666Z,12.60
2022-09-28T13:50:39.036Z,12.50
2022-09-28T13:53:05.877Z,13.00
2022-09-28T13:58:43.816Z,13.00
2022-09-28T14:01:23.471Z,13.00
2022-09-28T14:04:23.087Z,13.00
2022-09-28T14:06:56.951Z,12.70
2022-09-28T14:09:47.806Z,12.40
2022-09-28T14:12:35.520Z,12.50
2022-09-28T14:15:13.205Z,12.50
2022-09-28T14:18:01.183Z,12.40
2022-09-28T14:20:31.398Z,12.50
2022-09-28T14:23:56.350Z,13.00
2022-09-28T14:27:04.752Z,12.50
2022-09-28T14:29:38.195Z,12.40
2022-09-28T14:32:08.839Z,12.40
2022-09-28T14:34:59.300Z,12.40
2022-09-28T14:37:50.760Z,12.60
2022-09-28T14:40:39.238Z,12.40
2022-09-28T14:43:34.042Z,12.60
2022-09-28T14:46:18.812Z,12.30
2022-09-28T14:49:03.603Z,12.70
2022-09-28T14:51:30.458Z,12.70
2022-09-28T14:54:07.834Z,12.70
2022-09-28T14:56:54.278Z,12.60
2022-09-28T14:59:29.579Z,13.70
2022-09-28T15:02:23.752Z,12.50
2022-09-28T15:05:09.984Z,12.30
2022-09-28T15:07:52.375Z,12.40
2022-09-28T15:10:36.215Z,12.60
2022-09-28T15:13:24.907Z,12.70
2022-09-28T15:16:04.236Z,12.40
2022-09-28T15:19:19.480Z,12.40
2022-09-28T15:21:48.640Z,12.50
2022-09-28T15:24:28.945Z,12.60
2022-09-28T15:26:56.806Z,12.30
2022-09-28T15:29:24.131Z,12.70
2022-09-28T15:31:54.292Z,12.70
2022-09-28T15:34:52.582Z,12.60
2022-09-28T15:37:33.936Z,13.10
2022-09-28T15:40:04.095Z,12.00
2022-09-28T15:42:36.791Z,12.30
2022-09-28T15:45:26.803Z,12.30
2022-09-28T15:48:33.564Z,12.30
2022-09-28T15:51:12.756Z,12.30
2022-09-28T15:53:55.999Z,12.10
2022-09-28T15:56:23.093Z,12.30
2022-09-28T15:59:15.948Z,12.10
2022-09-28T16:01:44.626Z,12.30
2022-09-28T16:04:39.512Z,12.30
2022-09-28T16:07:34.683Z,12.20
2022-09-28T16:10:13.999Z,12.00
2022-09-28T16:12:52.573Z,12.20
2022-09-28T16:15:28.029Z,12.00
2022-09-28T16:18:01.498Z,12.20
2022-09-28T16:20:34.042Z,12.00
2022-09-28T16:23:27.255Z,11.90
2022-09-28T16:26:11.273Z,11.90
2022-09-28T16:28:48.708Z,12.10
2022-09-28T16:31:16.087Z,11.90
2022-09-28T16:33:54.323Z,12.70
2022-09-28T16:36:27.382Z,12.20
2022-09-28T16:38:55.188Z,12.20
2022-09-28T16:41:26.819Z,13.20
2022-09-28T16:44:00.815Z,12.00
2022-09-28T16:46:37.341Z,12.10
2022-09-28T16:49:06.707Z,12.20
2022-09-28T16:54:38.937Z,12.20
2022-09-28T16:57:08.906Z,12.20
2022-09-28T16:59:38.391Z,12.30
2022-09-28T17:05:15.707Z,12.20
2022-09-28T17:07:44.234Z,11.90
2022-09-28T17:10:50.081Z,12.00
2022-09-28T17:13:36.156Z,11.90
2022-09-28T17:16:11.370Z,11.90
2022-09-28T17:18:41.875Z,11.30
2022-09-28T17:21:15.985Z,12.10
2022-09-28T17:23:45.024Z,12.00
2022-09-28T17:26:31.567Z,12.00
2022-09-28T17:28:59.576Z,12.00
2022-09-28T17:31:26.896Z,12.00
2022-09-28T17:33:54.514Z,12.50
2022-09-28T17:36:22.087Z,11.60
2022-09-28T17:38:51.709Z,11.90
2022-09-28T17:41:20.827Z,11.90
2022-09-28T17:43:48.905Z,12.00
2022-09-28T17:46:30.464Z,11.70
2022-09-28T17:48:59.804Z,11.90
2022-09-28T17:51:34.609Z,11.80
2022-09-28T17:54:02.308Z,11.50
2022-09-28T17:56:32.711Z,11.50
2022-09-28T17:59:03.262Z,11.80
2022-09-28T18:01:34.383Z,11.30
2022-09-28T18:04:04.178Z,11.80
2022-09-28T18:06:34.783Z,11.70
2022-09-28T18:09:03.170Z,11.60
2022-09-28T18:11:31.663Z,11.70
2022-09-28T18:13:58.629Z,11.60
2022-09-28T18:16:27.919Z,11.70
2022-09-28T18:18:55.229Z,11.60
2022-09-28T18:21:22.282Z,11.70
2022-09-28T18:23:49.314Z,12.70
2022-09-28T18:26:19.508Z,11.60
2022-09-28T18:28:46.895Z,11.50
2022-09-28T18:31:15.643Z,11.50
2022-09-28T18:33:43.325Z,11.60
2022-09-28T18:36:10.366Z,11.60
2022-09-28T18:38:38.599Z,11.60
2022-09-28T18:41:15.626Z,11.30
2022-09-28T18:43:48.928Z,11.40
2022-09-28T18:46:18.307Z,11.50
2022-09-28T18:48:47.383Z,11.50
2022-09-28T18:51:17.119Z,11.20
2022-09-28T18:53:44.103Z,11.20
2022-09-28T18:56:19.743Z,12.20
2022-09-28T18:58:51.719Z,11.30
2022-09-28T19:01:36.262Z,11.50
2022-09-28T19:04:06.701Z,11.40
2022-09-28T19:06:36.874Z,11.20
2022-09-28T19:09:04.247Z,11.40
2022-09-28T19:11:32.444Z,11.20
2022-09-28T19:13:59.370Z,11.20
2022-09-28T19:16:41.329Z,11.50
2022-09-28T19:19:12.537Z,11.20
2022-09-28T19:21:41.199Z,11.40
2022-09-28T19:24:10.121Z,11.10
2022-09-28T19:26:37.109Z,11.30
2022-09-28T19:29:04.361Z,11.20
2022-09-28T19:31:32.338Z,11.90
2022-09-28T19:33:59.541Z,11.60
2022-09-28T19:36:28.524Z,10.10
2022-09-28T19:38:58.104Z,11.30
2022-09-28T19:41:46.460Z,11.10
2022-09-28T19:44:25.279Z,10.50
2022-09-28T19:46:59.264Z,10.70
2022-09-28T19:49:27.903Z,10.70
2022-09-28T19:52:12.219Z,11.00
2022-09-28T19:54:43.891Z,10.60
2022-09-28T19:57:12.761Z,10.60
2022-09-28T19:59:39.751Z,10.70
2022-09-28T20:02:09.923Z,10.60
2022-09-28T20:04:36.916Z,11.20
2022-09-28T20:07:05.218Z,9.80
2022-09-28T20:09:32.817Z,10.90
2022-09-28T20:11:59.877Z,10.90
2022-09-28T20:14:32.011Z,10.90
2022-09-28T20:17:01.185Z,11.00
2022-09-28T20:19:28.196Z,11.00
2022-09-28T20:21:58.551Z,11.60
2022-09-28T20:24:25.637Z,11.00
2022-09-28T20:26:52.622Z,10.90
2022-09-28T20:29:19.644Z,11.00
2022-09-28T20:31:46.856Z,10.90
2022-09-28T20:34:14.020Z,10.90
2022-09-28T20:36:44.509Z,10.80
2022-09-28T20:39:12.216Z,10.80
2022-09-28T20:44:07.396Z,10.80
2022-09-28T20:46:35.819Z,10.80
2022-09-28T20:49:04.184Z,10.90
2022-09-28T20:51:32.294Z,11.00
2022-09-28T20:54:00.305Z,11.00
2022-09-28T20:56:30.519Z,11.00
2022-09-28T20:58:57.702Z,10.90
2022-09-28T21:01:27.555Z,10.70
2022-09-28T21:04:02.642Z,10.70
2022-09-28T21:06:38.663Z,10.80
2022-09-28T21:09:07.709Z,10.70
2022-09-28T21:11:35.811Z,10.90
2022-09-28T21:14:06.272Z,10.70
2022-09-28T21:16:35.462Z,10.80
2022-09-28T21:19:03.330Z,10.70
2022-09-28T21:21:30.342Z,9.90
2022-09-28T21:23:58.450Z,10.70
2022-09-28T21:26:28.275Z,10.90
2022-09-28T21:28:58.715Z,10.50
2022-09-28T21:31:29.530Z,10.80
2022-09-28T21:33:58.086Z,10.70
2022-09-28T21:36:25.765Z,8.90
2022-09-28T21:38:54.499Z,10.90
2022-09-28T21:41:21.905Z,11.20
2022-09-28T21:43:48.855Z,9.70
2022-09-28T21:46:16.081Z,10.70
2022-09-28T21:48:43.265Z,10.90
2022-09-28T21:51:14.217Z,10.70
2022-09-28T21:53:41.220Z,10.70
2022-09-28T21:56:12.143Z,10.70
2022-09-28T21:58:40.207Z,10.50
2022-09-28T22:01:20.180Z,10.60
2022-09-28T22:03:50.573Z,10.60
2022-09-28T22:06:20.302Z,10.50
2022-09-28T22:08:49.289Z,10.50
2022-09-28T22:11:20.229Z,10.50
2022-09-28T22:13:53.457Z,10.40
2022-09-28T22:16:23.426Z,10.50
2022-09-28T22:18:51.177Z,10.40
2022-09-28T22:21:24.673Z,10.50
2022-09-28T22:23:52.803Z,10.50
2022-09-28T22:26:25.607Z,10.50
2022-09-28T22:28:55.884Z,10.60
2022-09-28T22:31:26.965Z,10.40
2022-09-28T22:33:54.672Z,10.40
2022-09-28T22:36:22.346Z,10.40
2022-09-28T22:38:50.770Z,10.20
2022-09-28T22:41:22.313Z,10.40
2022-09-28T22:43:51.874Z,10.30
2022-09-28T22:46:31.907Z,10.30
2022-09-28T22:48:59.940Z,10.40
2022-09-28T22:51:29.069Z,10.30
2022-09-28T22:53:56.748Z,10.40
2022-09-28T22:56:24.545Z,10.30
2022-09-28T22:58:51.563Z,10.40
2022-09-28T23:01:28.251Z,10.30
2022-09-28T23:03:57.418Z,9.60
2022-09-28T23:06:27.751Z,10.20
2022-09-28T23:08:54.836Z,10.40
2022-09-28T23:13:51.526Z,10.20
2022-09-28T23:16:19.487Z,10.20
2022-09-28T23:18:46.606Z,10.30
2022-09-28T23:21:17.788Z,10.20
2022-09-28T23:23:46.200Z,10.30
2022-09-28T23:26:22.940Z,9.30
2022-09-28T23:28:50.013Z,10.20
2022-09-28T23:31:24.195Z,10.20
2022-09-28T23:33:51.525Z,10.10
2022-09-28T23:36:18.883Z,10.20
2022-09-28T23:38:45.880Z,10.00
2022-09-28T23:41:12.898Z,10.00
2022-09-28T23:43:39.913Z,10.10
2022-09-28T23:46:07.220Z,10.60
2022-09-28T23:48:34.701Z,10.30
2022-09-28T23:51:02.639Z,10.00
2022-09-28T23:53:30.106Z,10.00
2022-09-28T23:55:57.041Z,10.00
2022-09-28T23:58:24.250Z,9.90
